sensor_id;sensor_type;location;lat;lon;timestamp;temperature;humidity
13642;DHT22;6894;52.196;9.904;2022-07-29T00:01:25;15.70;99.90
13642;DHT22;6894;52.196;9.904;2022-07-29T00:03:52;15.70;99.90
13642;DHT22;6894;52.196;9.904;2022-07-29T00:06:19;15.70;99.90
13642;DHT22;6894;52.196;9.904;2022-07-29T00:08:47;15.70;99.90
13642;DHT22;6894;52.196;9.904;2022-07-29T00:11:14;15.70;99.90
13642;DHT22;6894;52.196;9.904;2022-07-29T00:13:41;15.70;99.90
13642;DHT22;6894;52.196;9.904;2022-07-29T00:16:08;15.70;99.90
13642;DHT22;6894;52.196;9.904;2022-07-29T00:18:34;15.70;99.90
13642;DHT22;6894;52.196;9.904;2022-07-29T00:21:01;15.70;99.90
13642;DHT22;6894;52.196;9.904;2022-07-29T00:23:28;15.70;99.90
13642;DHT22;6894;52.196;9.904;2022-07-29T00:25:56;15.70;99.90
13642;DHT22;6894;52.196;9.904;2022-07-29T00:28:23;15.70;99.90
13642;DHT22;6894;52.196;9.904;2022-07-29T00:30:50;15.80;99.90
13642;DHT22;6894;52.196;9.904;2022-07-29T00:33:16;15.80;99.90
13642;DHT22;6894;52.196;9.904;2022-07-29T00:35:43;15.70;99.90
13642;DHT22;6894;52.196;9.904;2022-07-29T00:38:09;15.70;99.90
13642;DHT22;6894;52.196;9.904;2022-07-29T00:40:36;15.70;99.90
13642;DHT22;6894;52.196;9.904;2022-07-29T00:43:04;15.80;99.90
13642;DHT22;6894;52.196;9.904;2022-07-29T00:45:31;15.70;99.90
13642;DHT22;6894;52.196;9.904;2022-07-29T00:47:58;15.60;99.90
13642;DHT22;6894;52.196;9.904;2022-07-29T00:50:25;15.60;99.90
13642;DHT22;6894;52.196;9.904;2022-07-29T00:52:53;15.60;99.90
13642;DHT22;6894;52.196;9.904;2022-07-29T00:55:20;15.60;99.90
13642;DHT22;6894;52.196;9.904;2022-07-29T00:57:47;15.50;99.90
13642;DHT22;6894;52.196;9.904;2022-07-29T01:00:18;15.50;99.90
13642;DHT22;6894;52.196;9.904;2022-07-29T01:02:45;15.60;99.90
13642;DHT22;6894;52.196;9.904;2022-07-29T01:05:14;15.50;99.90
13642;DHT22;6894;52.196;9.904;2022-07-29T01:07:41;15.50;99.90
13642;DHT22;6894;52.196;9.904;2022-07-29T01:10:09;15.50;99.90
13642;DHT22;6894;52.196;9.904;2022-07-29T01:12:37;15.50;99.90
13642;DHT22;6894;52.196;9.904;2022-07-29T01:15:06;15.50;99.90
13642;DHT22;6894;52.196;9.904;2022-07-29T01:17:38;15.40;99.90
13642;DHT22;6894;52.196;9.904;2022-07-29T01:20:10;15.40;99.90
13642;DHT22;6894;52.196;9.904;2022-07-29T01:26:02;15.50;99.90
13642;DHT22;6894;52.196;9.904;2022-07-29T01:28:59;15.40;99.90
13642;DHT22;6894;52.196;9.904;2022-07-29T01:31:33;15.40;99.90
13642;DHT22;6894;52.196;9.904;2022-07-29T01:34:05;15.40;99.90
13642;DHT22;6894;52.196;9.904;2022-07-29T01:36:36;15.40;99.90
13642;DHT22;6894;52.196;9.904;2022-07-29T01:39:07;15.40;99.90
13642;DHT22;6894;52.196;9.904;2022-07-29T01:41:37;15.30;99.90
13642;DHT22;6894;52.196;9.904;2022-07-29T01:44:13;15.40;99.90
13642;DHT22;6894;52.196;9.904;2022-07-29T01:46:44;15.30;99.90
13642;DHT22;6894;52.196;9.904;2022-07-29T01:49:16;15.30;99.90
13642;DHT22;6894;52.196;9.904;2022-07-29T01:51:47;15.30;99.90
13642;DHT22;6894;52.196;9.904;2022-07-29T01:54:20;15.30;99.90
13642;DHT22;6894;52.196;9.904;2022-07-29T01:56:50;15.20;99.90
13642;DHT22;6894;52.196;9.904;2022-07-29T01:59:20;15.20;99.90
13642;DHT22;6894;52.196;9.904;2022-07-29T02:01:50;15.10;99.90
13642;DHT22;6894;52.196;9.904;2022-07-29T02:04:19;15.10;99.90
13642;DHT22;6894;52.196;9.904;2022-07-29T02:06:49;15.00;99.90
13642;DHT22;6894;52.196;9.904;2022-07-29T02:09:17;15.00;99.90
13642;DHT22;6894;52.196;9.904;2022-07-29T02:11:49;15.00;99.90
13642;DHT22;6894;52.196;9.904;2022-07-29T02:14:20;14.90;99.90
13642;DHT22;6894;52.196;9.904;2022-07-29T02:16:50;14.90;99.90
13642;DHT22;6894;52.196;9.904;2022-07-29T02:19:19;14.80;99.90
13642;DHT22;6894;52.196;9.904;2022-07-29T02:21:48;14.80;99.90
13642;DHT22;6894;52.196;9.904;2022-07-29T02:24:18;14.80;99.90
13642;DHT22;6894;52.196;9.904;2022-07-29T02:26:45;14.70;99.90
13642;DHT22;6894;52.196;9.904;2022-07-29T02:29:15;14.70;99.90
13642;DHT22;6894;52.196;9.904;2022-07-29T02:31:44;14.70;99.90
13642;DHT22;6894;52.196;9.904;2022-07-29T02:34:13;14.80;99.90
13642;DHT22;6894;52.196;9.904;2022-07-29T02:36:42;14.80;99.90
13642;DHT22;6894;52.196;9.904;2022-07-29T02:39:11;14.70;99.90
13642;DHT22;6894;52.196;9.904;2022-07-29T02:41:41;14.80;99.90
13642;DHT22;6894;52.196;9.904;2022-07-29T02:44:12;14.80;99.90
13642;DHT22;6894;52.196;9.904;2022-07-29T02:46:47;14.90;99.90
13642;DHT22;6894;52.196;9.904;2022-07-29T02:49:18;14.80;99.90
13642;DHT22;6894;52.196;9.904;2022-07-29T02:51:53;14.80;99.90
13642;DHT22;6894;52.196;9.904;2022-07-29T02:54:25;14.80;99.90
13642;DHT22;6894;52.196;9.904;2022-07-29T02:56:54;14.80;99.90
13642;DHT22;6894;52.196;9.904;2022-07-29T02:59:26;14.80;99.90
13642;DHT22;6894;52.196;9.904;2022-07-29T03:01:57;14.70;99.90
13642;DHT22;6894;52.196;9.904;2022-07-29T03:04:26;14.80;99.90
13642;DHT22;6894;52.196;9.904;2022-07-29T03:06:55;14.90;99.90
13642;DHT22;6894;52.196;9.904;2022-07-29T03:09:25;14.80;99.90
13642;DHT22;6894;52.196;9.904;2022-07-29T03:11:52;14.80;99.90
13642;DHT22;6894;52.196;9.904;2022-07-29T03:14:21;14.80;99.90
13642;DHT22;6894;52.196;9.904;2022-07-29T03:16:49;14.80;99.90
13642;DHT22;6894;52.196;9.904;2022-07-29T03:19:18;14.70;99.90
13642;DHT22;6894;52.196;9.904;2022-07-29T03:21:45;14.60;99.90
13642;DHT22;6894;52.196;9.904;2022-07-29T03:24:25;14.70;99.90
13642;DHT22;6894;52.196;9.904;2022-07-29T03:26:52;14.70;99.90
13642;DHT22;6894;52.196;9.904;2022-07-29T03:29:18;14.70;99.90
13642;DHT22;6894;52.196;9.904;2022-07-29T03:31:45;14.70;99.90
13642;DHT22;6894;52.196;9.904;2022-07-29T03:34:12;14.60;99.90
13642;DHT22;6894;52.196;9.904;2022-07-29T03:36:40;14.60;99.90
13642;DHT22;6894;52.196;9.904;2022-07-29T03:39:09;14.60;99.90
13642;DHT22;6894;52.196;9.904;2022-07-29T03:41:37;14.50;99.90
13642;DHT22;6894;52.196;9.904;2022-07-29T03:44:07;14.60;99.90
13642;DHT22;6894;52.196;9.904;2022-07-29T03:46:36;14.60;99.90
13642;DHT22;6894;52.196;9.904;2022-07-29T03:49:03;14.50;99.90
13642;DHT22;6894;52.196;9.904;2022-07-29T03:51:31;14.60;99.90
13642;DHT22;6894;52.196;9.904;2022-07-29T03:53:59;14.50;99.90
13642;DHT22;6894;52.196;9.904;2022-07-29T03:56:28;14.70;99.90
13642;DHT22;6894;52.196;9.904;2022-07-29T03:58:55;14.70;99.90
13642;DHT22;6894;52.196;9.904;2022-07-29T04:01:22;14.70;99.90
13642;DHT22;6894;52.196;9.904;2022-07-29T04:03:50;14.70;99.90
13642;DHT22;6894;52.196;9.904;2022-07-29T04:06:17;15.00;99.90
13642;DHT22;6894;52.196;9.904;2022-07-29T04:08:44;15.00;99.90
13642;DHT22;6894;52.196;9.904;2022-07-29T04:11:13;14.90;99.90
13642;DHT22;6894;52.196;9.904;2022-07-29T04:13:39;14.80;99.90
13642;DHT22;6894;52.196;9.904;2022-07-29T04:16:06;14.90;99.90
13642;DHT22;6894;52.196;9.904;2022-07-29T04:18:33;14.80;99.90
13642;DHT22;6894;52.196;9.904;2022-07-29T04:21:00;14.80;99.90
13642;DHT22;6894;52.196;9.904;2022-07-29T04:23:27;14.80;99.90
13642;DHT22;6894;52.196;9.904;2022-07-29T04:25:54;14.80;99.90
13642;DHT22;6894;52.196;9.904;2022-07-29T04:28:22;14.90;99.90
13642;DHT22;6894;52.196;9.904;2022-07-29T04:30:48;15.00;99.90
13642;DHT22;6894;52.196;9.904;2022-07-29T04:33:16;15.00;99.90
13642;DHT22;6894;52.196;9.904;2022-07-29T04:35:43;15.10;99.90
13642;DHT22;6894;52.196;9.904;2022-07-29T04:38:09;15.10;99.90
13642;DHT22;6894;52.196;9.904;2022-07-29T04:40:36;15.00;99.90
13642;DHT22;6894;52.196;9.904;2022-07-29T04:43:03;15.10;99.90
13642;DHT22;6894;52.196;9.904;2022-07-29T04:45:31;15.00;99.90
13642;DHT22;6894;52.196;9.904;2022-07-29T04:47:58;15.10;99.90
13642;DHT22;6894;52.196;9.904;2022-07-29T04:50:25;15.10;99.90
13642;DHT22;6894;52.196;9.904;2022-07-29T04:52:51;15.20;99.90
13642;DHT22;6894;52.196;9.904;2022-07-29T04:55:18;15.30;99.90
13642;DHT22;6894;52.196;9.904;2022-07-29T04:57:45;15.30;99.90
13642;DHT22;6894;52.196;9.904;2022-07-29T05:00:13;15.40;99.90
13642;DHT22;6894;52.196;9.904;2022-07-29T05:02:41;15.40;99.90
13642;DHT22;6894;52.196;9.904;2022-07-29T05:05:08;15.40;99.90
13642;DHT22;6894;52.196;9.904;2022-07-29T05:07:35;15.40;99.90
13642;DHT22;6894;52.196;9.904;2022-07-29T05:10:02;15.40;99.90
13642;DHT22;6894;52.196;9.904;2022-07-29T05:12:28;15.40;99.90
13642;DHT22;6894;52.196;9.904;2022-07-29T05:14:55;15.50;99.90
13642;DHT22;6894;52.196;9.904;2022-07-29T05:17:22;15.60;99.90
13642;DHT22;6894;52.196;9.904;2022-07-29T05:19:50;15.80;99.90
13642;DHT22;6894;52.196;9.904;2022-07-29T05:22:17;15.90;99.90
13642;DHT22;6894;52.196;9.904;2022-07-29T05:24:44;15.90;99.90
13642;DHT22;6894;52.196;9.904;2022-07-29T05:27:11;15.90;99.90
13642;DHT22;6894;52.196;9.904;2022-07-29T05:29:38;16.00;99.90
13642;DHT22;6894;52.196;9.904;2022-07-29T05:32:05;16.00;99.90
13642;DHT22;6894;52.196;9.904;2022-07-29T05:34:32;16.10;99.90
13642;DHT22;6894;52.196;9.904;2022-07-29T05:37:00;16.10;99.90
13642;DHT22;6894;52.196;9.904;2022-07-29T05:39:26;16.00;99.90
13642;DHT22;6894;52.196;9.904;2022-07-29T05:41:53;16.20;99.90
13642;DHT22;6894;52.196;9.904;2022-07-29T05:44:20;16.30;99.90
13642;DHT22;6894;52.196;9.904;2022-07-29T05:46:47;16.50;99.90
13642;DHT22;6894;52.196;9.904;2022-07-29T05:49:13;16.70;99.90
13642;DHT22;6894;52.196;9.904;2022-07-29T05:51:40;17.00;99.90
13642;DHT22;6894;52.196;9.904;2022-07-29T05:54:08;17.00;99.90
13642;DHT22;6894;52.196;9.904;2022-07-29T05:56:36;17.20;99.90
13642;DHT22;6894;52.196;9.904;2022-07-29T05:59:03;17.30;99.90
13642;DHT22;6894;52.196;9.904;2022-07-29T06:01:29;17.40;99.90
13642;DHT22;6894;52.196;9.904;2022-07-29T06:03:56;17.40;99.90
13642;DHT22;6894;52.196;9.904;2022-07-29T06:06:23;17.50;99.90
13642;DHT22;6894;52.196;9.904;2022-07-29T06:08:50;17.50;99.90
13642;DHT22;6894;52.196;9.904;2022-07-29T06:11:18;17.50;99.90
13642;DHT22;6894;52.196;9.904;2022-07-29T06:13:45;17.50;99.90
13642;DHT22;6894;52.196;9.904;2022-07-29T06:16:12;17.60;99.90
13642;DHT22;6894;52.196;9.904;2022-07-29T06:18:38;17.60;99.90
13642;DHT22;6894;52.196;9.904;2022-07-29T06:21:08;17.60;99.90
13642;DHT22;6894;52.196;9.904;2022-07-29T06:23:36;17.70;99.90
13642;DHT22;6894;52.196;9.904;2022-07-29T06:26:04;17.90;99.90
13642;DHT22;6894;52.196;9.904;2022-07-29T06:28:32;18.10;99.90
13642;DHT22;6894;52.196;9.904;2022-07-29T06:30:59;18.20;99.90
13642;DHT22;6894;52.196;9.904;2022-07-29T06:33:26;18.50;99.90
13642;DHT22;6894;52.196;9.904;2022-07-29T06:35:53;18.50;99.90
13642;DHT22;6894;52.196;9.904;2022-07-29T06:38:20;18.60;99.90
13642;DHT22;6894;52.196;9.904;2022-07-29T06:40:47;18.50;99.90
13642;DHT22;6894;52.196;9.904;2022-07-29T06:43:35;18.60;99.90
13642;DHT22;6894;52.196;9.904;2022-07-29T06:46:05;18.70;99.90
13642;DHT22;6894;52.196;9.904;2022-07-29T06:48:33;18.70;99.90
13642;DHT22;6894;52.196;9.904;2022-07-29T06:51:00;18.90;99.90
13642;DHT22;6894;52.196;9.904;2022-07-29T06:53:27;19.10;99.90
13642;DHT22;6894;52.196;9.904;2022-07-29T06:55:54;19.20;99.90
13642;DHT22;6894;52.196;9.904;2022-07-29T06:58:21;19.40;99.90
13642;DHT22;6894;52.196;9.904;2022-07-29T07:00:49;19.50;99.90
13642;DHT22;6894;52.196;9.904;2022-07-29T07:03:17;19.80;99.90
13642;DHT22;6894;52.196;9.904;2022-07-29T07:05:45;19.80;99.90
13642;DHT22;6894;52.196;9.904;2022-07-29T07:08:12;19.80;99.90
13642;DHT22;6894;52.196;9.904;2022-07-29T07:10:41;19.90;99.90
13642;DHT22;6894;52.196;9.904;2022-07-29T07:13:08;20.00;99.90
13642;DHT22;6894;52.196;9.904;2022-07-29T07:15:35;20.00;99.90
13642;DHT22;6894;52.196;9.904;2022-07-29T07:18:04;20.00;99.90
13642;DHT22;6894;52.196;9.904;2022-07-29T07:20:31;20.00;99.90
13642;DHT22;6894;52.196;9.904;2022-07-29T07:22:58;20.00;99.90
13642;DHT22;6894;52.196;9.904;2022-07-29T07:25:25;20.10;99.90
13642;DHT22;6894;52.196;9.904;2022-07-29T07:27:52;20.20;99.90
13642;DHT22;6894;52.196;9.904;2022-07-29T07:30:18;20.30;99.90
13642;DHT22;6894;52.196;9.904;2022-07-29T07:32:45;20.40;99.90
13642;DHT22;6894;52.196;9.904;2022-07-29T07:35:13;20.50;99.90
13642;DHT22;6894;52.196;9.904;2022-07-29T07:37:40;20.60;99.90
13642;DHT22;6894;52.196;9.904;2022-07-29T07:40:09;20.60;99.90
13642;DHT22;6894;52.196;9.904;2022-07-29T07:42:37;20.60;99.90
13642;DHT22;6894;52.196;9.904;2022-07-29T07:45:04;20.70;99.90
13642;DHT22;6894;52.196;9.904;2022-07-29T07:47:31;20.80;99.90
13642;DHT22;6894;52.196;9.904;2022-07-29T07:49:58;21.00;99.90
13642;DHT22;6894;52.196;9.904;2022-07-29T07:52:26;21.10;99.90
13642;DHT22;6894;52.196;9.904;2022-07-29T07:54:53;21.30;99.90
13642;DHT22;6894;52.196;9.904;2022-07-29T07:57:20;21.40;99.90
13642;DHT22;6894;52.196;9.904;2022-07-29T07:59:47;21.40;99.90
13642;DHT22;6894;52.196;9.904;2022-07-29T08:02:14;21.50;99.90
13642;DHT22;6894;52.196;9.904;2022-07-29T08:04:41;21.60;99.90
13642;DHT22;6894;52.196;9.904;2022-07-29T08:07:08;21.60;99.90
13642;DHT22;6894;52.196;9.904;2022-07-29T08:09:36;21.70;99.90
13642;DHT22;6894;52.196;9.904;2022-07-29T08:12:03;21.80;99.90
13642;DHT22;6894;52.196;9.904;2022-07-29T08:14:31;21.80;99.90
13642;DHT22;6894;52.196;9.904;2022-07-29T08:16:58;21.70;99.90
13642;DHT22;6894;52.196;9.904;2022-07-29T08:19:25;21.70;99.90
13642;DHT22;6894;52.196;9.904;2022-07-29T08:21:52;21.80;99.90
13642;DHT22;6894;52.196;9.904;2022-07-29T08:24:20;21.80;99.90
13642;DHT22;6894;52.196;9.904;2022-07-29T08:27:05;21.90;99.90
13642;DHT22;6894;52.196;9.904;2022-07-29T08:29:32;21.80;99.90
13642;DHT22;6894;52.196;9.904;2022-07-29T08:31:59;21.90;99.90
13642;DHT22;6894;52.196;9.904;2022-07-29T08:34:26;21.90;99.90
13642;DHT22;6894;52.196;9.904;2022-07-29T08:36:53;22.00;99.90
13642;DHT22;6894;52.196;9.904;2022-07-29T08:39:20;22.00;99.90
13642;DHT22;6894;52.196;9.904;2022-07-29T08:41:47;22.10;99.90
13642;DHT22;6894;52.196;9.904;2022-07-29T08:44:16;22.20;99.90
13642;DHT22;6894;52.196;9.904;2022-07-29T08:46:44;22.30;99.60
13642;DHT22;6894;52.196;9.904;2022-07-29T08:49:11;22.30;99.70
13642;DHT22;6894;52.196;9.904;2022-07-29T08:51:39;22.30;99.20
13642;DHT22;6894;52.196;9.904;2022-07-29T08:54:09;22.30;99.30
13642;DHT22;6894;52.196;9.904;2022-07-29T08:56:38;22.40;98.90
13642;DHT22;6894;52.196;9.904;2022-07-29T08:59:06;22.60;98.60
13642;DHT22;6894;52.196;9.904;2022-07-29T09:01:37;22.60;98.40
13642;DHT22;6894;52.196;9.904;2022-07-29T09:04:10;22.80;98.40
13642;DHT22;6894;52.196;9.904;2022-07-29T09:06:41;22.90;97.50
13642;DHT22;6894;52.196;9.904;2022-07-29T09:09:08;23.10;96.80
13642;DHT22;6894;52.196;9.904;2022-07-29T09:11:35;23.40;96.20
13642;DHT22;6894;52.196;9.904;2022-07-29T09:14:02;23.70;95.60
13642;DHT22;6894;52.196;9.904;2022-07-29T09:16:50;23.90;94.40
13642;DHT22;6894;52.196;9.904;2022-07-29T09:19:22;24.10;93.20
13642;DHT22;6894;52.196;9.904;2022-07-29T09:21:49;24.30;92.00
13642;DHT22;6894;52.196;9.904;2022-07-29T09:24:41;24.20;92.40
13642;DHT22;6894;52.196;9.904;2022-07-29T09:27:18;24.40;91.90
13642;DHT22;6894;52.196;9.904;2022-07-29T09:29:46;24.40;91.40
13642;DHT22;6894;52.196;9.904;2022-07-29T09:32:14;24.50;91.40
13642;DHT22;6894;52.196;9.904;2022-07-29T09:34:41;24.60;90.90
13642;DHT22;6894;52.196;9.904;2022-07-29T09:37:08;24.80;90.70
13642;DHT22;6894;52.196;9.904;2022-07-29T09:39:37;25.10;89.80
13642;DHT22;6894;52.196;9.904;2022-07-29T09:42:10;25.50;86.50
13642;DHT22;6894;52.196;9.904;2022-07-29T09:44:41;25.70;86.20
13642;DHT22;6894;52.196;9.904;2022-07-29T09:47:08;25.80;85.50
13642;DHT22;6894;52.196;9.904;2022-07-29T09:49:50;25.80;83.60
13642;DHT22;6894;52.196;9.904;2022-07-29T09:52:17;25.60;82.20
13642;DHT22;6894;52.196;9.904;2022-07-29T09:54:44;25.50;83.30
13642;DHT22;6894;52.196;9.904;2022-07-29T09:57:23;25.50;83.20
13642;DHT22;6894;52.196;9.904;2022-07-29T09:59:57;25.40;81.40
13642;DHT22;6894;52.196;9.904;2022-07-29T10:02:29;25.30;80.50
13642;DHT22;6894;52.196;9.904;2022-07-29T10:04:58;25.20;81.60
13642;DHT22;6894;52.196;9.904;2022-07-29T10:07:25;25.20;82.20
13642;DHT22;6894;52.196;9.904;2022-07-29T10:09:53;25.30;82.40
13642;DHT22;6894;52.196;9.904;2022-07-29T10:12:21;25.40;82.50
13642;DHT22;6894;52.196;9.904;2022-07-29T10:14:48;25.40;81.30
13642;DHT22;6894;52.196;9.904;2022-07-29T10:17:16;25.50;81.40
13642;DHT22;6894;52.196;9.904;2022-07-29T10:19:44;25.70;81.80
13642;DHT22;6894;52.196;9.904;2022-07-29T10:22:12;26.00;80.10
13642;DHT22;6894;52.196;9.904;2022-07-29T10:24:39;26.20;77.70
13642;DHT22;6894;52.196;9.904;2022-07-29T10:27:08;26.20;77.50
13642;DHT22;6894;52.196;9.904;2022-07-29T10:29:35;26.20;77.60
13642;DHT22;6894;52.196;9.904;2022-07-29T10:32:26;25.80;77.50
13642;DHT22;6894;52.196;9.904;2022-07-29T10:35:06;25.70;77.20
13642;DHT22;6894;52.196;9.904;2022-07-29T10:37:56;25.70;78.80
13642;DHT22;6894;52.196;9.904;2022-07-29T10:40:36;25.80;78.70
13642;DHT22;6894;52.196;9.904;2022-07-29T10:43:26;25.90;78.30
13642;DHT22;6894;52.196;9.904;2022-07-29T10:45:56;25.90;77.90
13642;DHT22;6894;52.196;9.904;2022-07-29T10:48:23;25.70;77.80
13642;DHT22;6894;52.196;9.904;2022-07-29T10:50:55;25.60;78.30
13642;DHT22;6894;52.196;9.904;2022-07-29T10:53:24;25.50;78.80
13642;DHT22;6894;52.196;9.904;2022-07-29T10:55:51;25.40;79.50
13642;DHT22;6894;52.196;9.904;2022-07-29T10:58:20;25.40;79.40
13642;DHT22;6894;52.196;9.904;2022-07-29T11:00:49;25.40;80.20
13642;DHT22;6894;52.196;9.904;2022-07-29T11:03:44;25.40;79.50
13642;DHT22;6894;52.196;9.904;2022-07-29T11:06:11;25.40;78.90
13642;DHT22;6894;52.196;9.904;2022-07-29T11:08:40;25.30;79.30
13642;DHT22;6894;52.196;9.904;2022-07-29T11:11:34;25.20;79.00
13642;DHT22;6894;52.196;9.904;2022-07-29T11:14:02;25.00;79.70
13642;DHT22;6894;52.196;9.904;2022-07-29T11:17:00;25.00;80.50
13642;DHT22;6894;52.196;9.904;2022-07-29T11:19:29;25.00;81.00
13642;DHT22;6894;52.196;9.904;2022-07-29T11:21:56;25.10;81.50
13642;DHT22;6894;52.196;9.904;2022-07-29T11:24:26;25.20;82.20
13642;DHT22;6894;52.196;9.904;2022-07-29T11:27:10;25.10;81.40
13642;DHT22;6894;52.196;9.904;2022-07-29T11:29:40;25.00;81.00
13642;DHT22;6894;52.196;9.904;2022-07-29T11:32:12;25.00;82.80
13642;DHT22;6894;52.196;9.904;2022-07-29T11:34:41;25.00;81.90
13642;DHT22;6894;52.196;9.904;2022-07-29T11:37:19;25.00;82.00
13642;DHT22;6894;52.196;9.904;2022-07-29T11:40:11;25.00;82.30
13642;DHT22;6894;52.196;9.904;2022-07-29T11:42:48;25.00;82.90
13642;DHT22;6894;52.196;9.904;2022-07-29T11:45:17;25.10;82.50
13642;DHT22;6894;52.196;9.904;2022-07-29T11:47:50;25.00;82.30
13642;DHT22;6894;52.196;9.904;2022-07-29T11:50:26;24.90;81.00
13642;DHT22;6894;52.196;9.904;2022-07-29T11:52:53;25.00;81.70
13642;DHT22;6894;52.196;9.904;2022-07-29T11:55:22;25.00;82.50
13642;DHT22;6894;52.196;9.904;2022-07-29T11:57:52;25.00;82.60
13642;DHT22;6894;52.196;9.904;2022-07-29T12:00:24;25.10;83.30
13642;DHT22;6894;52.196;9.904;2022-07-29T12:02:51;25.10;82.10
13642;DHT22;6894;52.196;9.904;2022-07-29T12:05:18;25.20;82.70
13642;DHT22;6894;52.196;9.904;2022-07-29T12:07:47;25.40;83.20
13642;DHT22;6894;52.196;9.904;2022-07-29T12:10:14;25.50;81.20
13642;DHT22;6894;52.196;9.904;2022-07-29T12:12:42;25.60;82.00
13642;DHT22;6894;52.196;9.904;2022-07-29T12:15:18;25.60;80.40
13642;DHT22;6894;52.196;9.904;2022-07-29T12:17:46;25.60;79.40
13642;DHT22;6894;52.196;9.904;2022-07-29T12:20:13;25.60;79.70
13642;DHT22;6894;52.196;9.904;2022-07-29T12:22:42;25.70;79.30
13642;DHT22;6894;52.196;9.904;2022-07-29T12:25:10;25.80;79.90
13642;DHT22;6894;52.196;9.904;2022-07-29T12:27:39;25.90;80.20
13642;DHT22;6894;52.196;9.904;2022-07-29T12:30:10;26.00;79.00
13642;DHT22;6894;52.196;9.904;2022-07-29T12:32:38;26.10;78.50
13642;DHT22;6894;52.196;9.904;2022-07-29T12:35:07;26.10;77.40
13642;DHT22;6894;52.196;9.904;2022-07-29T12:37:35;26.10;76.40
13642;DHT22;6894;52.196;9.904;2022-07-29T12:40:04;26.10;77.20
13642;DHT22;6894;52.196;9.904;2022-07-29T12:42:32;26.10;78.30
13642;DHT22;6894;52.196;9.904;2022-07-29T12:44:58;26.20;78.30
13642;DHT22;6894;52.196;9.904;2022-07-29T12:47:27;26.40;76.30
13642;DHT22;6894;52.196;9.904;2022-07-29T12:50:08;26.40;75.90
13642;DHT22;6894;52.196;9.904;2022-07-29T12:52:35;26.40;76.50
13642;DHT22;6894;52.196;9.904;2022-07-29T12:55:02;26.60;76.40
13642;DHT22;6894;52.196;9.904;2022-07-29T12:57:30;26.50;75.50
13642;DHT22;6894;52.196;9.904;2022-07-29T13:00:05;26.40;74.90
13642;DHT22;6894;52.196;9.904;2022-07-29T13:02:36;26.50;76.10
13642;DHT22;6894;52.196;9.904;2022-07-29T13:05:05;26.60;76.40
13642;DHT22;6894;52.196;9.904;2022-07-29T13:07:37;26.60;74.90
13642;DHT22;6894;52.196;9.904;2022-07-29T13:10:11;26.70;74.20
13642;DHT22;6894;52.196;9.904;2022-07-29T13:12:54;26.80;73.90
13642;DHT22;6894;52.196;9.904;2022-07-29T13:15:27;26.90;72.50
13642;DHT22;6894;52.196;9.904;2022-07-29T13:17:55;26.90;72.90
13642;DHT22;6894;52.196;9.904;2022-07-29T13:20:24;26.80;72.70
13642;DHT22;6894;52.196;9.904;2022-07-29T13:22:52;26.80;73.20
13642;DHT22;6894;52.196;9.904;2022-07-29T13:25:25;26.80;73.30
13642;DHT22;6894;52.196;9.904;2022-07-29T13:27:52;26.80;72.50
13642;DHT22;6894;52.196;9.904;2022-07-29T13:30:21;26.90;72.10
13642;DHT22;6894;52.196;9.904;2022-07-29T13:32:49;26.80;71.20
13642;DHT22;6894;52.196;9.904;2022-07-29T13:35:18;26.80;71.50
13642;DHT22;6894;52.196;9.904;2022-07-29T13:37:45;26.80;71.50
13642;DHT22;6894;52.196;9.904;2022-07-29T13:40:13;26.90;70.90
13642;DHT22;6894;52.196;9.904;2022-07-29T13:42:40;26.90;70.00
13642;DHT22;6894;52.196;9.904;2022-07-29T13:45:09;26.90;69.20
13642;DHT22;6894;52.196;9.904;2022-07-29T13:47:37;27.00;68.20
13642;DHT22;6894;52.196;9.904;2022-07-29T13:50:05;27.10;69.30
13642;DHT22;6894;52.196;9.904;2022-07-29T13:52:39;27.20;68.30
13642;DHT22;6894;52.196;9.904;2022-07-29T13:55:07;27.30;67.90
13642;DHT22;6894;52.196;9.904;2022-07-29T13:57:35;27.20;70.30
13642;DHT22;6894;52.196;9.904;2022-07-29T14:00:02;27.10;69.90
13642;DHT22;6894;52.196;9.904;2022-07-29T14:02:29;27.30;71.90
13642;DHT22;6894;52.196;9.904;2022-07-29T14:04:55;27.60;70.20
13642;DHT22;6894;52.196;9.904;2022-07-29T14:07:23;28.00;64.80
13642;DHT22;6894;52.196;9.904;2022-07-29T14:09:51;28.40;63.10
13642;DHT22;6894;52.196;9.904;2022-07-29T14:12:18;28.60;61.00
13642;DHT22;6894;52.196;9.904;2022-07-29T14:14:45;28.90;59.70
13642;DHT22;6894;52.196;9.904;2022-07-29T14:17:11;29.30;55.20
13642;DHT22;6894;52.196;9.904;2022-07-29T14:19:38;29.40;50.10
13642;DHT22;6894;52.196;9.904;2022-07-29T14:22:06;29.20;45.90
13642;DHT22;6894;52.196;9.904;2022-07-29T14:24:33;29.10;46.00
13642;DHT22;6894;52.196;9.904;2022-07-29T14:27:01;29.00;44.30
13642;DHT22;6894;52.196;9.904;2022-07-29T14:29:28;28.90;43.40
13642;DHT22;6894;52.196;9.904;2022-07-29T14:31:55;28.90;43.00
13642;DHT22;6894;52.196;9.904;2022-07-29T14:34:22;28.90;43.10
13642;DHT22;6894;52.196;9.904;2022-07-29T14:36:48;28.80;42.50
13642;DHT22;6894;52.196;9.904;2022-07-29T14:39:17;28.70;41.40
13642;DHT22;6894;52.196;9.904;2022-07-29T14:41:44;28.50;39.60
13642;DHT22;6894;52.196;9.904;2022-07-29T14:44:14;28.50;40.90
13642;DHT22;6894;52.196;9.904;2022-07-29T14:46:41;28.50;38.10
13642;DHT22;6894;52.196;9.904;2022-07-29T14:49:11;28.40;38.00
13642;DHT22;6894;52.196;9.904;2022-07-29T14:51:37;28.50;38.50
13642;DHT22;6894;52.196;9.904;2022-07-29T14:54:07;28.70;37.80
13642;DHT22;6894;52.196;9.904;2022-07-29T14:56:34;28.80;36.10
13642;DHT22;6894;52.196;9.904;2022-07-29T14:59:01;28.70;35.50
13642;DHT22;6894;52.196;9.904;2022-07-29T15:01:29;28.60;34.60
13642;DHT22;6894;52.196;9.904;2022-07-29T15:03:56;28.50;34.20
13642;DHT22;6894;52.196;9.904;2022-07-29T15:06:22;28.40;34.10
13642;DHT22;6894;52.196;9.904;2022-07-29T15:08:49;28.40;34.40
13642;DHT22;6894;52.196;9.904;2022-07-29T15:11:16;28.50;35.30
13642;DHT22;6894;52.196;9.904;2022-07-29T15:13:43;28.50;35.10
13642;DHT22;6894;52.196;9.904;2022-07-29T15:16:09;28.40;33.60
13642;DHT22;6894;52.196;9.904;2022-07-29T15:18:38;28.20;32.50
13642;DHT22;6894;52.196;9.904;2022-07-29T15:21:04;28.10;33.60
13642;DHT22;6894;52.196;9.904;2022-07-29T15:23:32;28.00;32.30
13642;DHT22;6894;52.196;9.904;2022-07-29T15:26:00;27.90;32.10
13642;DHT22;6894;52.196;9.904;2022-07-29T15:28:27;27.80;32.50
13642;DHT22;6894;52.196;9.904;2022-07-29T15:30:54;27.80;32.50
13642;DHT22;6894;52.196;9.904;2022-07-29T15:33:21;27.70;32.50
13642;DHT22;6894;52.196;9.904;2022-07-29T15:35:49;27.80;32.30
13642;DHT22;6894;52.196;9.904;2022-07-29T15:38:16;27.70;32.00
13642;DHT22;6894;52.196;9.904;2022-07-29T15:40:43;27.60;31.70
13642;DHT22;6894;52.196;9.904;2022-07-29T15:43:11;27.40;31.40
13642;DHT22;6894;52.196;9.904;2022-07-29T15:45:38;27.30;31.10
13642;DHT22;6894;52.196;9.904;2022-07-29T15:48:06;27.30;31.70
13642;DHT22;6894;52.196;9.904;2022-07-29T15:50:33;27.20;32.20
13642;DHT22;6894;52.196;9.904;2022-07-29T15:53:01;27.20;32.10
13642;DHT22;6894;52.196;9.904;2022-07-29T15:55:28;27.20;32.90
13642;DHT22;6894;52.196;9.904;2022-07-29T15:57:55;27.10;32.10
13642;DHT22;6894;52.196;9.904;2022-07-29T16:00:22;27.00;31.90